createdAt,value
2018-12-30T00:00:05.047Z,9.23
2018-12-30T00:02:32.179Z,7.90
2018-12-30T00:04:59.231Z,8.23
2018-12-30T00:07:26.444Z,7.67
2018-12-30T00:09:53.204Z,7.60
2018-12-30T00:12:20.072Z,8.50
2018-12-30T00:14:46.936Z,9.10
2018-12-30T00:17:13.659Z,9.23
2018-12-30T00:19:42.674Z,9.37
2018-12-30T00:22:09.031Z,9.37
2018-12-30T00:24:35.734Z,9.20
2018-12-30T00:27:02.895Z,7.80
2018-12-30T00:32:12.647Z,9.57
2018-12-30T00:34:42.098Z,7.90
2018-12-30T00:37:08.821Z,10.40
2018-12-30T00:39:35.529Z,8.13
2018-12-30T00:42:02.385Z,8.23
2018-12-30T00:44:32.105Z,9.10
2018-12-30T00:46:58.829Z,8.60
2018-12-30T00:49:25.941Z,7.93
2018-12-30T00:51:52.653Z,9.13
2018-12-30T00:54:19.344Z,8.37
2018-12-30T00:56:46.083Z,8.20
2018-12-30T00:59:12.783Z,7.73
2018-12-30T01:01:40.035Z,9.60
2018-12-30T01:04:06.717Z,9.70
2018-12-30T01:06:33.558Z,8.37
2018-12-30T01:09:00.272Z,9.00
2018-12-30T01:11:27.339Z,6.97
2018-12-30T01:13:54.041Z,7.73
2018-12-30T01:16:20.904Z,8.53
2018-12-30T01:18:47.646Z,9.90
2018-12-30T01:21:14.371Z,8.73
2018-12-30T01:23:41.088Z,7.90
2018-12-30T01:26:08.135Z,8.63
2018-12-30T01:28:34.844Z,9.70
2018-12-30T01:31:03.456Z,9.90
2018-12-30T01:33:30.205Z,9.13
2018-12-30T01:35:58.375Z,10.40
2018-12-30T01:38:25.106Z,10.80
2018-12-30T01:40:51.854Z,9.30
2018-12-30T01:43:18.963Z,9.60
2018-12-30T01:45:47.206Z,10.70
2018-12-30T01:48:13.898Z,10.10
2018-12-30T01:50:40.588Z,8.90
2018-12-30T01:53:07.925Z,9.07
2018-12-30T01:55:34.760Z,10.00
2018-12-30T01:58:01.601Z,9.57
2018-12-30T02:00:28.310Z,10.10
2018-12-30T02:02:58.034Z,7.90
2018-12-30T02:05:30.057Z,10.50
2018-12-30T02:07:56.784Z,9.60
2018-12-30T02:10:23.552Z,10.43
2018-12-30T02:12:50.687Z,10.30
2018-12-30T02:15:17.388Z,9.87
2018-12-30T02:17:44.114Z,10.10
2018-12-30T02:20:13.324Z,10.43
2018-12-30T02:22:42.727Z,10.50
2018-12-30T02:25:12.264Z,10.70
2018-12-30T02:27:39.416Z,10.73
2018-12-30T02:30:06.157Z,10.10
2018-12-30T02:32:32.867Z,10.70
2018-12-30T02:34:59.692Z,11.23
2018-12-30T02:37:26.407Z,10.77
2018-12-30T02:39:53.490Z,9.90
2018-12-30T02:42:20.193Z,10.70
2018-12-30T02:44:48.062Z,10.90
2018-12-30T02:47:17.642Z,11.37
2018-12-30T02:49:44.435Z,11.10
2018-12-30T02:52:11.147Z,11.30
2018-12-30T02:54:38.385Z,11.37
2018-12-30T02:57:05.100Z,10.03
2018-12-30T02:59:31.804Z,11.53
2018-12-30T03:01:59.393Z,10.57
2018-12-30T03:04:26.129Z,10.83
2018-12-30T03:06:52.829Z,11.17
2018-12-30T03:09:19.539Z,11.63
2018-12-30T03:11:46.388Z,11.60
2018-12-30T03:14:16.235Z,11.47
2018-12-30T03:16:48.419Z,11.60
2018-12-30T03:19:17.340Z,10.10
2018-12-30T03:21:44.770Z,10.43
2018-12-30T03:24:11.504Z,10.60
2018-12-30T03:26:38.239Z,11.43
2018-12-30T03:29:07.781Z,11.00
2018-12-30T03:31:34.598Z,11.03
2018-12-30T03:34:01.302Z,11.20
2018-12-30T03:36:30.423Z,11.30
2018-12-30T03:38:57.161Z,11.30
2018-12-30T03:41:23.993Z,11.27
2018-12-30T03:43:50.751Z,10.87
2018-12-30T03:46:17.671Z,10.17
2018-12-30T03:48:44.363Z,11.20
2018-12-30T03:51:11.089Z,8.87
2018-12-30T03:53:37.812Z,10.70
2018-12-30T03:56:04.590Z,11.53
2018-12-30T03:58:31.403Z,10.80
2018-12-30T04:00:58.141Z,10.60
2018-12-30T04:03:24.869Z,9.60
2018-12-30T04:05:51.583Z,10.53
2018-12-30T04:08:18.684Z,10.43
2018-12-30T04:10:45.434Z,10.00
2018-12-30T04:13:12.167Z,10.43
2018-12-30T04:15:38.854Z,10.57
2018-12-30T04:18:05.836Z,10.20
2018-12-30T04:20:32.562Z,10.47
2018-12-30T04:22:59.280Z,9.73
2018-12-30T04:25:26.017Z,10.60
2018-12-30T04:27:53.034Z,9.60
2018-12-30T04:30:19.761Z,10.07
2018-12-30T04:32:46.516Z,10.07
2018-12-30T04:35:13.253Z,9.97
2018-12-30T04:37:41.973Z,10.93
2018-12-30T04:40:08.709Z,11.50
2018-12-30T04:42:35.404Z,10.87
2018-12-30T04:45:02.126Z,10.70
2018-12-30T04:47:28.988Z,10.50
2018-12-30T04:49:55.740Z,11.77
2018-12-30T04:52:25.806Z,11.50
2018-12-30T04:54:51.207Z,11.23
2018-12-30T04:57:17.915Z,10.90
2018-12-30T04:59:45.965Z,10.90
2018-12-30T05:02:12.716Z,11.43
2018-12-30T05:04:39.456Z,10.33
2018-12-30T05:07:06.194Z,10.57
2018-12-30T05:09:32.913Z,11.60
2018-12-30T05:11:59.655Z,11.50
2018-12-30T05:14:26.695Z,12.03
2018-12-30T05:16:53.374Z,12.90
2018-12-30T05:19:20.503Z,11.80
2018-12-30T05:21:47.205Z,12.30
2018-12-30T05:24:13.968Z,12.60
2018-12-30T05:26:40.666Z,12.47
2018-12-30T05:29:07.400Z,11.50
2018-12-30T05:31:34.132Z,11.80
2018-12-30T05:34:00.822Z,11.30
2018-12-30T05:36:27.575Z,11.40
2018-12-30T05:38:54.266Z,10.70
2018-12-30T05:41:20.992Z,12.00
2018-12-30T05:43:47.698Z,12.27
2018-12-30T05:46:14.392Z,12.33
2018-12-30T05:48:41.587Z,12.93
2018-12-30T05:51:08.377Z,13.40
2018-12-30T05:53:35.098Z,12.03
2018-12-30T05:56:01.793Z,12.30
2018-12-30T05:58:28.551Z,12.63
2018-12-30T06:00:55.251Z,12.07
2018-12-30T06:03:22.192Z,11.07
2018-12-30T06:05:48.899Z,10.40
2018-12-30T06:08:15.653Z,9.53
2018-12-30T06:10:42.497Z,10.50
2018-12-30T06:13:11.089Z,10.60
2018-12-30T06:15:37.807Z,10.80
2018-12-30T06:18:04.528Z,10.50
2018-12-30T06:20:31.438Z,12.07
2018-12-30T06:22:58.137Z,11.30
2018-12-30T06:25:24.821Z,11.23
2018-12-30T06:27:51.567Z,9.40
2018-12-30T06:30:18.294Z,11.00
2018-12-30T06:32:45.062Z,10.23
2018-12-30T06:35:11.778Z,10.20
2018-12-30T06:37:38.525Z,10.80
2018-12-30T06:40:11.262Z,11.87
2018-12-30T06:42:34.174Z,12.43
2018-12-30T06:45:01.233Z,12.00
2018-12-30T06:47:27.924Z,11.47
2018-12-30T06:49:55.049Z,7.80
2018-12-30T06:52:21.724Z,11.07
2018-12-30T06:54:48.451Z,10.83
2018-12-30T06:57:15.257Z,11.50
2018-12-30T06:59:41.961Z,11.30
2018-12-30T07:02:08.728Z,10.57
2018-12-30T07:04:35.441Z,11.30
2018-12-30T07:07:02.156Z,10.13
2018-12-30T07:09:28.884Z,10.83
2018-12-30T07:11:55.602Z,9.87
2018-12-30T07:14:22.328Z,11.47
2018-12-30T07:16:49.428Z,11.80
2018-12-30T07:19:16.210Z,10.60
2018-12-30T07:21:42.939Z,8.77
2018-12-30T07:24:09.696Z,11.20
2018-12-30T07:26:36.362Z,9.50
2018-12-30T07:29:03.557Z,9.70
2018-12-30T07:31:30.347Z,10.07
2018-12-30T07:33:57.077Z,10.27
2018-12-30T07:36:23.769Z,9.93
2018-12-30T07:38:50.799Z,9.20
2018-12-30T07:41:18.191Z,8.73
2018-12-30T07:43:45.257Z,9.47
2018-12-30T07:46:11.981Z,9.77
2018-12-30T07:48:38.721Z,7.90
2018-12-30T07:51:05.721Z,8.80
2018-12-30T07:53:32.466Z,9.60
2018-12-30T07:55:59.141Z,8.97
2018-12-30T07:58:25.868Z,9.40
2018-12-30T08:00:52.624Z,7.30
2018-12-30T08:03:19.600Z,6.10
2018-12-30T08:05:46.314Z,8.03
2018-12-30T08:08:13.021Z,8.40
2018-12-30T08:10:39.826Z,8.87
2018-12-30T08:13:06.538Z,8.60
2018-12-30T08:15:33.606Z,8.80
2018-12-30T08:18:00.400Z,9.50
2018-12-30T08:20:27.162Z,8.97
2018-12-30T08:22:53.871Z,8.70
2018-12-30T08:25:20.646Z,9.00
2018-12-30T08:27:47.488Z,8.17
2018-12-30T08:30:14.546Z,6.57
2018-12-30T08:32:41.256Z,7.97
2018-12-30T08:35:07.979Z,8.13
2018-12-30T08:37:34.682Z,7.87
2018-12-30T08:40:01.411Z,7.67
2018-12-30T08:42:28.239Z,7.27
2018-12-30T08:44:55.009Z,7.37
2018-12-30T08:47:21.787Z,8.60
2018-12-30T08:49:48.631Z,7.83
2018-12-30T08:52:15.614Z,7.43
2018-12-30T08:54:42.357Z,7.20
2018-12-30T08:57:09.121Z,7.57
2018-12-30T08:59:35.853Z,7.60
2018-12-30T09:02:02.552Z,6.70
2018-12-30T09:04:29.281Z,7.90
2018-12-30T09:06:56.008Z,7.90
2018-12-30T09:09:22.708Z,7.70
2018-12-30T09:11:49.508Z,6.77
2018-12-30T09:14:16.271Z,7.70
2018-12-30T09:16:44.673Z,7.10
2018-12-30T09:19:11.366Z,7.77
2018-12-30T09:21:38.436Z,7.50
2018-12-30T09:24:05.157Z,7.47
2018-12-30T09:26:31.855Z,8.00
2018-12-30T09:28:58.912Z,6.70
2018-12-30T09:31:26.832Z,6.97
2018-12-30T09:33:53.685Z,7.03
2018-12-30T09:36:21.815Z,8.03
2018-12-30T09:38:48.570Z,7.20
2018-12-30T09:41:15.474Z,6.30
2018-12-30T09:43:42.481Z,7.07
2018-12-30T09:46:09.192Z,6.90
2018-12-30T09:48:37.815Z,8.50
2018-12-30T09:51:04.540Z,6.90
2018-12-30T09:53:31.536Z,5.63
2018-12-30T09:55:58.261Z,6.43
2018-12-30T09:58:27.124Z,6.80
2018-12-30T10:00:53.898Z,6.57
2018-12-30T10:03:20.637Z,6.47
2018-12-30T10:05:47.371Z,6.93
2018-12-30T10:08:14.110Z,6.47
2018-12-30T10:10:40.872Z,8.30
2018-12-30T10:13:08.403Z,8.70
2018-12-30T10:15:38.257Z,9.60
2018-12-30T10:18:04.994Z,9.10
2018-12-30T10:20:31.673Z,9.90
2018-12-30T10:22:58.832Z,10.77
2018-12-30T10:25:25.806Z,10.07
2018-12-30T10:27:52.622Z,10.47
2018-12-30T10:30:19.342Z,10.70
2018-12-30T10:32:46.055Z,11.10
2018-12-30T10:35:12.930Z,11.40
2018-12-30T10:37:39.977Z,12.17
2018-12-30T10:40:06.724Z,11.67
2018-12-30T10:42:33.663Z,11.60
2018-12-30T10:45:00.371Z,11.33
2018-12-30T10:47:27.441Z,11.57
2018-12-30T10:49:54.133Z,11.53
2018-12-30T10:52:20.842Z,11.33
2018-12-30T10:54:47.705Z,10.83
2018-12-30T10:57:14.452Z,9.87
2018-12-30T10:59:41.219Z,10.10
2018-12-30T11:02:07.927Z,10.20
2018-12-30T11:04:34.714Z,9.53
2018-12-30T11:07:01.608Z,9.03
2018-12-30T11:09:28.315Z,9.00
2018-12-30T11:12:02.557Z,9.27
2018-12-30T11:14:29.823Z,9.87
2018-12-30T11:16:56.727Z,8.70
2018-12-30T11:19:23.676Z,7.87
2018-12-30T11:21:50.424Z,8.80
2018-12-30T11:24:17.243Z,8.00
2018-12-30T11:26:44.142Z,9.20
2018-12-30T11:29:10.864Z,8.40
2018-12-30T11:31:37.890Z,7.77
2018-12-30T11:34:07.135Z,7.73
2018-12-30T11:36:33.860Z,8.60
2018-12-30T11:39:00.611Z,9.40
2018-12-30T11:41:27.358Z,8.50
2018-12-30T11:43:54.082Z,7.90
2018-12-30T11:46:20.812Z,8.37
2018-12-30T11:48:47.635Z,8.83
2018-12-30T11:51:14.770Z,8.10
2018-12-30T11:53:41.838Z,7.80
2018-12-30T11:56:08.731Z,8.53
2018-12-30T11:58:35.651Z,7.53
2018-12-30T12:01:02.490Z,8.20
2018-12-30T12:03:29.219Z,7.83
2018-12-30T12:05:56.034Z,8.80
2018-12-30T12:08:23.173Z,8.37
2018-12-30T12:10:49.910Z,9.37
2018-12-30T12:13:16.609Z,8.77
2018-12-30T12:15:43.385Z,8.47
2018-12-30T12:18:10.107Z,8.20
2018-12-30T12:20:36.902Z,8.20
2018-12-30T12:23:03.650Z,9.20
2018-12-30T12:25:30.798Z,9.37
2018-12-30T12:27:57.547Z,8.90
2018-12-30T12:30:24.775Z,8.73
2018-12-30T12:32:51.927Z,8.53
2018-12-30T12:35:18.637Z,9.00
2018-12-30T12:37:45.387Z,8.80
2018-12-30T12:40:12.110Z,9.27
2018-12-30T12:42:38.856Z,8.93
2018-12-30T12:45:05.631Z,8.20
2018-12-30T12:47:32.562Z,7.90
2018-12-30T12:49:59.304Z,8.87
2018-12-30T12:52:26.309Z,9.50
2018-12-30T12:54:53.048Z,8.90
2018-12-30T12:57:22.704Z,8.90
2018-12-30T12:59:49.463Z,8.90
2018-12-30T13:02:16.186Z,8.93
2018-12-30T13:04:42.889Z,9.73
2018-12-30T13:07:09.652Z,7.67
2018-12-30T13:09:37.018Z,8.37
2018-12-30T13:12:03.779Z,8.27
2018-12-30T13:14:31.269Z,8.50
2018-12-30T13:16:59.440Z,9.20
2018-12-30T13:19:26.167Z,8.40
2018-12-30T13:21:52.935Z,8.67
2018-12-30T13:24:22.261Z,8.70
2018-12-30T13:26:51.029Z,8.83
2018-12-30T13:29:17.860Z,7.17
2018-12-30T13:31:44.610Z,8.57
2018-12-30T13:34:11.358Z,7.47
2018-12-30T13:36:38.368Z,8.20
2018-12-30T13:39:06.326Z,8.83
2018-12-30T13:41:33.066Z,7.80
2018-12-30T13:43:59.894Z,6.73
2018-12-30T13:46:26.601Z,8.10
2018-12-30T13:48:54.489Z,6.50
2018-12-30T13:51:21.238Z,8.70
2018-12-30T13:53:47.965Z,7.10
2018-12-30T13:56:14.958Z,7.83
2018-12-30T13:58:41.801Z,7.47
2018-12-30T14:01:08.534Z,7.67
2018-12-30T14:03:35.380Z,7.57
2018-12-30T14:06:03.536Z,7.13
2018-12-30T14:08:31.726Z,7.70
2018-12-30T14:10:58.443Z,6.03
2018-12-30T14:13:25.153Z,6.30
2018-12-30T14:15:52.316Z,7.00
2018-12-30T14:18:19.032Z,7.27
2018-12-30T14:20:46.146Z,7.17
2018-12-30T14:23:12.894Z,8.10
2018-12-30T14:25:39.711Z,7.17
2018-12-30T14:28:09.085Z,7.37
2018-12-30T14:30:35.809Z,7.07
2018-12-30T14:33:02.596Z,7.83
2018-12-30T14:35:30.010Z,8.70
2018-12-30T14:37:57.163Z,8.03
2018-12-30T14:40:23.992Z,7.23
2018-12-30T14:42:50.858Z,8.80
2018-12-30T14:45:17.688Z,8.30
2018-12-30T14:47:44.475Z,7.97
2018-12-30T14:50:11.894Z,8.80
2018-12-30T14:52:38.779Z,10.20
2018-12-30T14:55:06.012Z,8.80
2018-12-30T14:57:33.114Z,9.90
2018-12-30T15:00:00.034Z,9.30
2018-12-30T15:02:26.774Z,10.03
2018-12-30T15:04:53.495Z,9.20
2018-12-30T15:07:20.238Z,8.90
2018-12-30T15:09:47.045Z,9.97
2018-12-30T15:12:14.174Z,10.00
2018-12-30T15:14:40.992Z,9.83
2018-12-30T15:17:08.016Z,9.90
2018-12-30T15:19:34.802Z,9.73
2018-12-30T15:22:01.536Z,9.83
2018-12-30T15:24:28.263Z,10.60
2018-12-30T15:26:55.286Z,10.30
2018-12-30T15:29:22.089Z,10.03
2018-12-30T15:31:49.447Z,10.60
2018-12-30T15:34:16.458Z,10.10
2018-12-30T15:36:43.208Z,10.50
2018-12-30T15:39:10.265Z,10.53
2018-12-30T15:41:36.992Z,9.87
2018-12-30T15:44:05.024Z,10.53
2018-12-30T15:46:33.070Z,10.80
2018-12-30T15:48:59.941Z,10.70
2018-12-30T15:51:26.764Z,10.30
2018-12-30T15:53:54.787Z,10.43
2018-12-30T15:56:21.608Z,11.13
2018-12-30T15:58:48.364Z,10.20
2018-12-30T16:01:15.621Z,10.07
2018-12-30T16:03:42.892Z,11.20
2018-12-30T16:06:10.129Z,10.80
2018-12-30T16:08:36.985Z,10.63
2018-12-30T16:11:06.125Z,10.40
2018-12-30T16:13:32.930Z,9.60
2018-12-30T16:16:01.642Z,10.37
2018-12-30T16:18:28.378Z,10.10
2018-12-30T16:20:55.105Z,9.70
2018-12-30T16:23:22.356Z,10.07
2018-12-30T16:25:49.090Z,10.27
2018-12-30T16:28:15.931Z,9.90
2018-12-30T16:30:42.771Z,9.57
2018-12-30T16:33:10.016Z,10.30
2018-12-30T16:35:36.822Z,9.87
2018-12-30T16:38:05.338Z,10.47
2018-12-30T16:40:32.517Z,9.77
2018-12-30T16:42:59.289Z,10.33
2018-12-30T16:45:26.038Z,9.50
2018-12-30T16:48:01.179Z,10.50
2018-12-30T16:50:27.880Z,11.30
2018-12-30T16:52:55.050Z,11.43
2018-12-30T16:55:34.728Z,11.27
2018-12-30T16:57:56.949Z,10.50
2018-12-30T17:00:25.678Z,12.57
2018-12-30T17:02:52.584Z,12.10
2018-12-30T17:05:23.146Z,12.20
2018-12-30T17:07:50.286Z,12.07
2018-12-30T17:10:17.925Z,12.13
2018-12-30T17:12:44.924Z,11.70
2018-12-30T17:15:15.303Z,11.63
2018-12-30T17:17:43.599Z,12.00
2018-12-30T17:20:10.459Z,10.77
2018-12-30T17:22:37.188Z,11.63
2018-12-30T17:25:10.297Z,12.80
2018-12-30T17:27:37.123Z,11.50
2018-12-30T17:30:04.893Z,10.40
2018-12-30T17:32:31.654Z,10.60
2018-12-30T17:35:01.499Z,11.40
2018-12-30T17:37:28.219Z,11.47
2018-12-30T17:39:54.939Z,11.80
2018-12-30T17:42:21.665Z,13.27
2018-12-30T17:44:51.326Z,11.77
2018-12-30T17:47:20.322Z,12.23
2018-12-30T17:49:47.166Z,9.93
2018-12-30T17:52:14.020Z,12.00
2018-12-30T17:54:40.870Z,11.60
2018-12-30T17:57:11.034Z,11.57
2018-12-30T17:59:38.090Z,11.70
2018-12-30T18:02:04.842Z,12.00
2018-12-30T18:04:32.107Z,12.30
2018-12-30T18:07:04.581Z,10.90
2018-12-30T18:09:31.471Z,12.10
2018-12-30T18:11:58.969Z,11.50
2018-12-30T18:14:27.928Z,11.73
2018-12-30T18:16:55.000Z,11.87
2018-12-30T18:19:21.748Z,11.60
2018-12-30T18:21:48.583Z,12.13
2018-12-30T18:24:17.647Z,12.63
2018-12-30T18:26:44.932Z,13.87
2018-12-30T18:29:11.689Z,12.83
2018-12-30T18:31:38.545Z,14.20
2018-12-30T18:34:05.644Z,11.87
2018-12-30T18:36:32.492Z,11.67
2018-12-30T18:38:59.240Z,12.77
2018-12-30T18:41:26.023Z,13.10
2018-12-30T18:43:52.951Z,12.80
2018-12-30T18:46:19.693Z,12.07
2018-12-30T18:48:46.411Z,11.80
2018-12-30T18:51:13.136Z,11.70
2018-12-30T18:53:39.846Z,12.37
2018-12-30T18:56:07.190Z,12.30
2018-12-30T18:58:34.141Z,12.07
2018-12-30T19:01:01.741Z,11.63
2018-12-30T19:03:28.998Z,12.50
2018-12-30T19:05:55.973Z,12.47
2018-12-30T19:08:22.889Z,13.30
2018-12-30T19:10:49.635Z,12.67
2018-12-30T19:13:16.508Z,12.67
2018-12-30T19:15:43.589Z,14.30
2018-12-30T19:18:10.353Z,12.23
2018-12-30T19:20:37.096Z,13.07
2018-12-30T19:23:06.869Z,13.67
2018-12-30T19:25:33.597Z,12.40
2018-12-30T19:28:03.231Z,13.30
2018-12-30T19:30:31.090Z,12.27
2018-12-30T19:32:57.809Z,12.43
2018-12-30T19:35:24.567Z,12.27
2018-12-30T19:37:51.283Z,13.37
2018-12-30T19:40:18.047Z,12.50
2018-12-30T19:42:44.921Z,13.47
2018-12-30T19:45:11.679Z,13.40
2018-12-30T19:47:38.438Z,12.90
2018-12-30T19:50:05.564Z,12.93
2018-12-30T19:52:32.315Z,12.70
2018-12-30T19:54:59.024Z,13.00
2018-12-30T19:57:25.992Z,14.10
2018-12-30T19:59:53.175Z,13.77
2018-12-30T20:02:19.905Z,13.30
2018-12-30T20:04:46.635Z,12.93
2018-12-30T20:07:14.399Z,12.80
2018-12-30T20:09:41.856Z,12.27
2018-12-30T20:12:08.901Z,13.30
2018-12-30T20:14:35.821Z,12.80
2018-12-30T20:17:02.602Z,12.30
2018-12-30T20:19:29.420Z,12.30
2018-12-30T20:21:56.774Z,12.57
2018-12-30T20:24:23.699Z,13.43
2018-12-30T20:26:50.551Z,14.37
2018-12-30T20:29:17.444Z,13.27
2018-12-30T20:31:44.167Z,13.57
2018-12-30T20:34:12.004Z,12.93
2018-12-30T20:36:39.321Z,14.33
2018-12-30T20:39:06.754Z,12.10
2018-12-30T20:41:33.741Z,12.30
2018-12-30T20:44:00.587Z,13.47
2018-12-30T20:46:28.270Z,11.77
2018-12-30T20:48:55.027Z,13.33
2018-12-30T20:51:21.781Z,12.63
2018-12-30T20:53:48.524Z,12.20
2018-12-30T20:56:17.306Z,12.10
2018-12-30T20:58:44.050Z,12.77
2018-12-30T21:01:10.765Z,12.47
2018-12-30T21:03:37.533Z,12.70
2018-12-30T21:06:04.405Z,12.33
2018-12-30T21:08:31.540Z,12.77
2018-12-30T21:10:58.867Z,15.93
2018-12-30T21:13:25.739Z,14.20
2018-12-30T21:15:53.724Z,11.83
2018-12-30T21:18:21.002Z,12.90
2018-12-30T21:20:48.186Z,14.73
2018-12-30T21:23:15.311Z,13.33
2018-12-30T21:25:42.063Z,13.53
2018-12-30T21:28:09.288Z,14.93
2018-12-30T21:30:36.043Z,13.87
2018-12-30T21:33:03.446Z,13.70
2018-12-30T21:35:30.639Z,12.30
2018-12-30T21:37:57.611Z,13.80
2018-12-30T21:40:25.089Z,12.90
2018-12-30T21:42:52.142Z,12.33
2018-12-30T21:45:18.863Z,12.43
2018-12-30T21:47:46.093Z,12.90
2018-12-30T21:50:12.978Z,10.97
2018-12-30T21:52:39.859Z,12.23
2018-12-30T21:55:07.043Z,11.43
2018-12-30T21:57:36.275Z,11.40
2018-12-30T22:00:04.297Z,10.93
2018-12-30T22:02:31.393Z,10.80
2018-12-30T22:04:58.152Z,9.50
2018-12-30T22:07:25.061Z,9.50
2018-12-30T22:09:52.102Z,8.60
2018-12-30T22:12:18.824Z,9.30
2018-12-30T22:14:47.093Z,8.83
2018-12-30T22:17:14.236Z,9.00
2018-12-30T22:19:41.008Z,8.50
2018-12-30T22:22:08.447Z,8.63
2018-12-30T22:24:35.462Z,8.87
2018-12-30T22:27:02.331Z,8.80
2018-12-30T22:29:29.314Z,8.40
2018-12-30T22:31:56.129Z,8.40
2018-12-30T22:34:23.020Z,7.93
2018-12-30T22:36:49.775Z,7.90
2018-12-30T22:39:16.652Z,7.47
2018-12-30T22:41:43.413Z,8.30
2018-12-30T22:44:10.179Z,7.07
2018-12-30T22:46:37.041Z,6.90
2018-12-30T22:49:03.792Z,8.23
2018-12-30T22:51:30.939Z,7.00
2018-12-30T22:53:58.963Z,7.77
2018-12-30T22:56:25.809Z,8.00
2018-12-30T22:58:52.491Z,8.20
2018-12-30T23:01:23.548Z,7.27
2018-12-30T23:03:50.419Z,6.80
2018-12-30T23:06:17.172Z,7.20
2018-12-30T23:08:43.926Z,6.40
2018-12-30T23:11:10.941Z,6.10
2018-12-30T23:13:37.711Z,6.30
2018-12-30T23:16:04.420Z,6.10
2018-12-30T23:18:31.198Z,5.80
2018-12-30T23:20:57.969Z,6.40
2018-12-30T23:23:24.724Z,6.07
2018-12-30T23:25:51.846Z,6.30
2018-12-30T23:28:21.282Z,5.10
2018-12-30T23:30:48.992Z,6.10
2018-12-30T23:33:15.852Z,5.23
2018-12-30T23:35:42.730Z,6.23
2018-12-30T23:38:09.594Z,4.90
2018-12-30T23:40:36.358Z,5.40
2018-12-30T23:43:05.069Z,5.43
2018-12-30T23:45:31.789Z,5.20
2018-12-30T23:47:58.558Z,5.23
2018-12-30T23:50:25.612Z,4.70
2018-12-30T23:52:52.311Z,5.07
2018-12-30T23:55:19.066Z,5.13
2018-12-30T23:57:45.805Z,5.20
